Hovedside
METAR-TAF:

METAR-TAF

Lufthavner :

Ankara Esenboğa, Tyrkia

Esenboğa internasjonale lufthavn

breddegrad: 40-07N, lengdegrad: 032-59E, høyde over havet: 953 m

Gjeldene værobservasjon

Denne rapporten ble laget for 27 minutter siden, klokken 18:50 UTC
Vind 8 kt fra Nord-nordvest
Temperatur 1°C
Luftfuktighet 55%
Trykk 1000 hPa
Sikt 10 km eller mer
Spredte skyer i en høyde av 4000 ft
Brutte skyer i en høyde av 10000 ft

METAR: LTAC 181850Z 33008KT 9999 SCT040 BKN100 01/M07 Q1000 NOSIG RMK RWY21L 35008KT 320V020 RWY03L 31007KT 250V010 RWY21R VRB04KT

Tid: 22:17 (19:17 UTC)

Varsel

Denne rapporten ble laget for 2 timer og 37 minutter siden, klokken 16:40 UTC
Varsel gyldig fra 18. klokken 18 UTC til 19. klokken 18 UTC
Vind 12 kt fra Vest-nordvest
Sikt 10 km eller mer
Spredte skyer i en høyde av 3500 ft
Brutte skyer i en høyde av 9000 ft
Blir
fra 19. klokken 09 UTC til 19. klokken 12 UTC
Vind 2 kt fra skiftende retning

TAF: LTAC 181640Z 1818/1918 30012KT 9999 SCT035 BKN090 BECMG 1909/1912 VRB02KT

Værobservasjoner og værvarsel for over 4000 flyplasser (METAR- og TAF-rapporter).

Tilgjengelige stasjoner er representert av de røde og gule prikkene på kartet.

Hold musepekeren over prikken for å se navnet på stasjonen.

Klikk så for å se værobservasjoner og -varsler.

For å forandre kartet kan du klikke på den grønne knappen med svart kryss for å zoome inn, på den grønne knappen med strek for å zoome ut, eller på de grønne pilene for å se tilstøtende kart.


METAR-TAF: